Time,TemperatureF,DewpointF,PressureIn,WindDirection,WindDirectionDegrees,WindSpeedMPH,WindSpeedGustMPH,Humidity,HourlyPrecipIn,Conditions,Clouds,dailyrainin,SoftwareType,DateUTC
2013-10-08 00:00:00,57.7,55.4,30.18,South,187,2.0,4.0,92,0.00,RA,,0.00,WeatherDisplay:10.37,2013-10-07 23:00:00,
2013-10-08 00:15:00,57.6,55.3,30.18,South,187,1.0,4.0,92,0.00,OVC,,0.00,WeatherDisplay:10.37,2013-10-07 23:15:00,
2013-10-08 00:30:00,57.4,55.1,30.18,SSW,194,2.0,5.0,92,0.00,OVC,,0.00,WeatherDisplay:10.37,2013-10-07 23:30:00,
2013-10-08 00:45:00,57.4,55.1,30.17,South,171,2.0,5.0,92,0.00,OVC,,0.00,WeatherDisplay:10.37,2013-10-07 23:45:00,
2013-10-08 01:00:00,57.4,55.4,30.18,SSW,203,3.0,6.0,93,0.00,OVC,,0.00,WeatherDisplay:10.37,2013-10-08 00:00:00,
2013-10-08 01:15:00,57.4,55.4,30.17,SSW,197,2.0,6.0,93,0.00,BKN,,0.00,WeatherDisplay:10.37,2013-10-08 00:15:00,
2013-10-08 01:30:00,57.2,55.2,30.18,SSW,197,3.0,6.0,93,0.00,BKN,,0.00,WeatherDisplay:10.37,2013-10-08 00:30:00,
2013-10-08 01:45:00,57.0,55.0,30.18,SSW,207,3.0,7.0,93,0.00,BKN,,0.00,WeatherDisplay:10.37,2013-10-08 00:45:00,
2013-10-08 02:00:00,57.0,55.0,30.18,SSW,198,3.0,7.0,93,0.00,BKN,,0.00,WeatherDisplay:10.37,2013-10-08 01:00:00,
2013-10-08 02:15:00,57.0,55.3,30.18,South,188,2.0,6.0,94,0.00,OVC,,0.00,WeatherDisplay:10.37,2013-10-08 01:15:00,
2013-10-08 02:30:00,57.0,55.3,30.18,SSW,193,2.0,6.0,94,0.00,OVC,,0.00,WeatherDisplay:10.37,2013-10-08 01:30:00,
2013-10-08 02:45:00,57.0,55.0,30.18,South,191,2.0,5.0,93,0.00,OVC,,0.00,WeatherDisplay:10.37,2013-10-08 01:45:00,
2013-10-08 03:00:00,56.8,54.8,30.17,South,179,1.0,5.0,93,0.00,OVC,,0.00,WeatherDisplay:10.37,2013-10-08 02:00:00,
2013-10-08 03:15:00,56.8,54.8,30.18,SSE,167,1.0,5.0,93,0.00,OVC,,0.00,WeatherDisplay:10.37,2013-10-08 02:15:00,
2013-10-08 03:30:00,56.7,55.0,30.17,South,188,2.0,6.0,94,0.00,OVC,,0.00,WeatherDisplay:10.37,2013-10-08 02:30:00,
2013-10-08 03:45:00,56.5,54.8,30.18,South,173,2.0,4.0,94,0.00,OVC,,0.00,WeatherDisplay:10.37,2013-10-08 02:45:00,
2013-10-08 04:00:00,56.5,54.8,30.17,SSE,150,1.0,4.0,94,0.00,OVC,,0.00,WeatherDisplay:10.37,2013-10-08 03:00:00,
2013-10-08 04:15:00,56.5,54.8,30.18,SE,142,2.0,4.0,94,0.00,CLR,,0.00,WeatherDisplay:10.37,2013-10-08 03:15:00,
2013-10-08 04:30:00,56.5,54.8,30.18,SSE,147,2.0,5.0,94,0.00,CLR,,0.00,WeatherDisplay:10.37,2013-10-08 03:30:00,
2013-10-08 04:45:00,56.4,54.7,30.17,SE,143,2.0,5.0,94,0.00,CLR,,0.00,WeatherDisplay:10.37,2013-10-08 03:45:00,
2013-10-08 05:00:00,56.3,54.6,30.18,SE,144,2.0,7.0,94,0.00,CLR,,0.00,WeatherDisplay:10.37,2013-10-08 04:00:00,
2013-10-08 05:15:00,56.1,54.4,30.17,South,177,1.0,5.0,94,0.00,CLR,,0.00,WeatherDisplay:10.37,2013-10-08 04:15:00,
2013-10-08 05:30:00,56.1,54.7,30.18,South,182,0.0,4.0,95,0.00,CLR,,0.00,WeatherDisplay:10.37,2013-10-08 04:30:00,
2013-10-08 05:45:00,56.1,54.7,30.18,South,182,1.0,6.0,95,0.00,CLR,,0.00,WeatherDisplay:10.37,2013-10-08 04:45:00,
2013-10-08 06:00:00,56.1,54.7,30.18,SSE,152,1.0,4.0,95,0.00,CLR,,0.00,WeatherDisplay:10.37,2013-10-08 05:00:00,
2013-10-08 06:15:00,56.1,54.7,30.19,SE,141,1.0,3.0,95,0.00,OVC,,0.00,WeatherDisplay:10.37,2013-10-08 05:15:00,
2013-10-08 06:30:00,56.1,54.7,30.18,SSW,201,3.0,5.0,95,0.00,OVC,,0.00,WeatherDisplay:10.37,2013-10-08 05:30:00,
2013-10-08 06:45:00,56.3,54.9,30.18,SSW,197,1.0,5.0,95,0.00,OVC,,0.00,WeatherDisplay:10.37,2013-10-08 05:45:00,
2013-10-08 07:00:00,56.5,55.1,30.18,South,177,0.0,4.0,95,0.00,OVC,,0.00,WeatherDisplay:10.37,2013-10-08 06:00:00,
2013-10-08 07:15:00,56.5,55.1,30.19,South,187,1.0,4.0,95,0.00,BKN,,0.00,WeatherDisplay:10.37,2013-10-08 06:15:00,
2013-10-08 07:30:00,56.8,55.4,30.19,SSW,212,1.0,5.0,95,0.00,BKN,,0.00,WeatherDisplay:10.37,2013-10-08 06:30:00,
2013-10-08 07:45:00,56.8,55.4,30.19,SSW,194,0.0,3.0,95,0.00,BKN,,0.00,WeatherDisplay:10.37,2013-10-08 06:45:00,
2013-10-08 08:01:00,56.8,55.4,30.19,SSW,213,2.0,4.0,95,0.00,BKN,,0.00,WeatherDisplay:10.37,2013-10-08 07:01:00,
2013-10-08 08:15:00,57.0,55.6,30.19,SSW,206,3.0,5.0,95,0.00,SCT,,0.00,WeatherDisplay:10.37,2013-10-08 07:15:00,
2013-10-08 08:30:00,57.4,56.0,30.19,SSW,195,1.0,4.0,95,0.00,SCT,,0.00,WeatherDisplay:10.37,2013-10-08 07:30:00,
2013-10-08 08:45:00,57.7,56.3,30.19,SSW,204,2.0,5.0,95,0.00,SCT,,0.00,WeatherDisplay:10.37,2013-10-08 07:45:00,
2013-10-08 09:00:00,58.3,56.9,30.20,SW,221,5.0,8.0,95,0.00,SCT,,0.00,WeatherDisplay:10.37,2013-10-08 08:00:00,
2013-10-08 09:15:00,58.8,57.4,30.19,SW,214,5.0,6.0,95,0.00,SCT,,0.00,WeatherDisplay:10.37,2013-10-08 08:15:00,
2013-10-08 09:30:00,59.3,57.8,30.19,SW,219,6.0,8.0,95,0.00,SCT,,0.00,WeatherDisplay:10.37,2013-10-08 08:30:00,
2013-10-08 09:45:00,60.1,58.9,30.20,WSW,240,5.0,9.0,96,0.00,SCT,,0.00,WeatherDisplay:10.37,2013-10-08 08:45:00,
2013-10-08 10:00:00,61.0,59.5,30.20,WSW,238,5.0,10.0,95,0.00,SCT,,0.00,WeatherDisplay:10.37,2013-10-08 09:00:00,
2013-10-08 10:15:00,61.5,60.4,30.21,WSW,245,5.0,9.0,96,0.00,SCT,,0.00,WeatherDisplay:10.37,2013-10-08 09:15:00,
2013-10-08 10:30:00,62.1,60.9,30.21,West,260,6.0,9.0,96,0.00,SCT,,0.00,WeatherDisplay:10.37,2013-10-08 09:30:00,
2013-10-08 10:45:00,62.2,61.1,30.21,West,263,5.0,13.0,96,0.00,SCT,,0.00,WeatherDisplay:10.37,2013-10-08 09:45:00,
2013-10-08 11:00:00,62.2,60.8,30.21,WSW,249,7.0,16.0,95,0.00,SCT,,0.00,WeatherDisplay:10.37,2013-10-08 10:00:00,
2013-10-08 11:15:00,62.1,60.6,30.21,WSW,254,5.0,11.0,95,0.00,SCT,,0.00,WeatherDisplay:10.37,2013-10-08 10:15:00,
2013-10-08 11:30:00,61.9,60.4,30.21,West,264,7.0,14.0,95,0.00,SCT,,0.00,WeatherDisplay:10.37,2013-10-08 10:30:00,
2013-10-08 11:45:00,61.9,60.4,30.22,WSW,256,6.0,12.0,95,0.00,SCT,,0.00,WeatherDisplay:10.37,2013-10-08 10:45:00,
2013-10-08 12:00:00,62.1,60.6,30.22,West,275,5.0,10.0,95,0.00,SCT,,0.00,WeatherDisplay:10.37,2013-10-08 11:00:00,
2013-10-08 12:15:00,62.1,60.6,30.21,West,266,3.0,10.0,95,0.02,RA,,0.02,WeatherDisplay:10.37,2013-10-08 11:15:00,
2013-10-08 12:30:00,62.1,60.6,30.21,WSW,258,5.0,14.0,95,0.02,SCT,,0.02,WeatherDisplay:10.37,2013-10-08 11:30:00,
2013-10-08 12:45:00,62.1,60.6,30.21,WSW,255,6.0,12.0,95,0.02,SCT,,0.02,WeatherDisplay:10.37,2013-10-08 11:45:00,
2013-10-08 13:00:00,62.1,60.6,30.21,WSW,256,7.0,12.0,95,0.02,SCT,,0.02,WeatherDisplay:10.37,2013-10-08 12:00:00,
2013-10-08 13:15:00,62.1,60.6,30.22,West,272,8.0,14.0,95,0.00,-DZ,,0.02,WeatherDisplay:10.37,2013-10-08 12:15:00,
2013-10-08 13:30:00,62.2,60.8,30.21,West,273,8.0,15.0,95,0.00,-DZ,,0.02,WeatherDisplay:10.37,2013-10-08 12:30:00,
2013-10-08 13:45:00,62.4,61.3,30.21,West,271,7.0,13.0,96,0.02,-DZ,,0.04,WeatherDisplay:10.37,2013-10-08 12:45:00,
2013-10-08 14:00:00,62.7,61.5,30.20,West,279,8.0,15.0,96,0.02,-DZ,,0.04,WeatherDisplay:10.37,2013-10-08 13:00:00,
2013-10-08 14:15:00,62.8,61.6,30.21,West,276,7.0,16.0,96,0.02,-RA,,0.04,WeatherDisplay:10.37,2013-10-08 13:15:00,
2013-10-08 14:30:00,63.0,61.8,30.21,West,272,7.0,16.0,96,0.02,-RA,,0.04,WeatherDisplay:10.37,2013-10-08 13:30:00,
2013-10-08 14:45:00,62.8,61.6,30.21,West,275,6.0,12.0,96,0.00,-RA,,0.04,WeatherDisplay:10.37,2013-10-08 13:45:00,
2013-10-08 15:00:00,62.4,61.0,30.21,West,277,3.0,9.0,95,0.00,-RA,,0.04,WeatherDisplay:10.37,2013-10-08 14:00:00,
2013-10-08 15:15:00,62.2,60.8,30.20,West,280,7.0,12.0,95,0.00,-DZ,,0.04,WeatherDisplay:10.37,2013-10-08 14:15:00,
2013-10-08 15:30:00,61.9,60.7,30.20,WNW,284,6.0,12.0,96,0.00,-DZ,,0.04,WeatherDisplay:10.37,2013-10-08 14:30:00,
2013-10-08 15:45:00,61.9,60.7,30.20,WNW,289,8.0,13.0,96,0.00,-DZ,,0.04,WeatherDisplay:10.37,2013-10-08 14:45:00,
2013-10-08 16:00:00,61.5,60.4,30.21,WNW,286,6.0,12.0,96,0.02,-DZ,,0.06,WeatherDisplay:10.37,2013-10-08 15:00:00,
2013-10-08 16:15:00,61.3,60.2,30.20,NNW,340,1.0,8.0,96,0.02,-DZ,,0.06,WeatherDisplay:10.37,2013-10-08 15:15:00,
2013-10-08 16:30:00,61.0,59.5,30.21,NNW,344,1.0,5.0,95,0.02,-DZ,,0.06,WeatherDisplay:10.37,2013-10-08 15:30:00,
2013-10-08 16:45:00,60.6,59.2,30.20,NNW,335,2.0,5.0,95,0.02,-DZ,,0.06,WeatherDisplay:10.37,2013-10-08 15:45:00,
2013-10-08 17:15:00,60.3,58.9,30.21,North,349,0.0,3.0,95,0.02,-DZ,,0.08,WeatherDisplay:10.37,2013-10-08 16:15:00,
2013-10-08 17:30:00,60.3,59.1,30.20,NW,318,2.0,2.0,96,0.02,-DZ,,0.08,WeatherDisplay:10.37,2013-10-08 16:30:00,
2013-10-08 17:45:00,60.1,58.9,30.20,WNW,299,1.0,3.0,96,0.02,-DZ,,0.08,WeatherDisplay:10.37,2013-10-08 16:45:00,
2013-10-08 18:00:00,60.1,58.9,30.21,WNW,303,0.0,3.0,96,0.02,-DZ,,0.10,WeatherDisplay:10.37,2013-10-08 17:00:00,
2013-10-08 18:15:00,60.1,58.9,30.21,WNW,287,0.0,1.0,96,0.02,-DZ,,0.10,WeatherDisplay:10.37,2013-10-08 17:15:00,
2013-10-08 18:30:00,59.9,58.8,30.21,West,272,0.0,2.0,96,0.02,-DZ,,0.10,WeatherDisplay:10.37,2013-10-08 17:30:00,
2013-10-08 18:45:00,59.7,58.6,30.22,WNW,289,1.0,2.0,96,0.02,-DZ,,0.10,WeatherDisplay:10.37,2013-10-08 17:45:00,
2013-10-08 19:00:00,59.6,58.4,30.22,WNW,300,3.0,5.0,96,0.00,-DZ,,0.10,WeatherDisplay:10.37,2013-10-08 18:00:00,
2013-10-08 19:15:00,59.5,58.4,30.22,WNW,291,2.0,6.0,96,0.02,-DZ,,0.12,WeatherDisplay:10.37,2013-10-08 18:15:00,
2013-10-08 19:30:00,59.5,58.4,30.22,WNW,300,2.0,6.0,96,0.02,-DZ,,0.12,WeatherDisplay:10.37,2013-10-08 18:30:00,
2013-10-08 19:45:00,59.4,58.2,30.22,NW,307,1.0,3.0,96,0.02,-DZ,,0.12,WeatherDisplay:10.37,2013-10-08 18:45:00,
2013-10-08 20:00:00,59.2,58.0,30.23,WNW,295,0.0,2.0,96,0.02,-DZ,,0.12,WeatherDisplay:10.37,2013-10-08 19:00:00,
2013-10-08 20:15:00,59.1,57.9,30.23,WNW,300,2.0,3.0,96,0.00,-DZ,,0.12,WeatherDisplay:10.37,2013-10-08 19:15:00,
2013-10-08 20:30:00,58.9,57.8,30.23,WNW,295,1.0,3.0,96,0.00,-DZ,,0.12,WeatherDisplay:10.37,2013-10-08 19:30:00,
2013-10-08 20:45:00,58.8,57.7,30.23,West,279,1.0,3.0,96,0.00,-DZ,,0.12,WeatherDisplay:10.37,2013-10-08 19:45:00,
2013-10-08 21:00:00,58.8,57.7,30.23,WNW,292,0.0,2.0,96,0.00,-DZ,,0.12,WeatherDisplay:10.37,2013-10-08 20:00:00,
2013-10-08 21:15:00,58.8,57.7,30.23,WNW,286,0.0,2.0,96,0.00,-DZ,,0.12,WeatherDisplay:10.37,2013-10-08 20:15:00,
2013-10-08 21:30:00,58.8,57.7,30.23,WNW,282,1.0,2.0,96,0.00,-DZ,,0.12,WeatherDisplay:10.37,2013-10-08 20:30:00,
2013-10-08 21:45:00,58.8,57.7,30.24,WNW,287,1.0,3.0,96,0.02,-DZ,,0.14,WeatherDisplay:10.37,2013-10-08 20:45:00,
2013-10-08 22:00:00,58.8,57.7,30.24,WNW,282,2.0,4.0,96,0.02,-DZ,,0.14,WeatherDisplay:10.37,2013-10-08 21:00:00,
2013-10-08 22:15:00,58.8,57.7,30.24,WNW,288,1.0,5.0,96,0.02,-DZ,,0.14,WeatherDisplay:10.37,2013-10-08 21:15:00,
2013-10-08 22:30:00,58.8,57.7,30.24,WNW,292,2.0,5.0,96,0.02,-DZ,,0.14,WeatherDisplay:10.37,2013-10-08 21:30:00,
2013-10-08 22:45:00,58.8,57.7,30.23,WNW,287,1.0,5.0,96,0.00,-DZ,,0.14,WeatherDisplay:10.37,2013-10-08 21:45:00,
2013-10-08 23:00:00,58.8,58.0,30.23,WNW,287,2.0,5.0,97,0.00,-DZ,,0.14,WeatherDisplay:10.37,2013-10-08 22:00:00,
2013-10-08 23:15:00,58.8,58.0,30.23,WNW,294,1.0,5.0,97,0.00,-DZ,,0.14,WeatherDisplay:10.37,2013-10-08 22:15:00,
2013-10-08 23:30:00,58.8,58.0,30.22,NW,310,1.0,4.0,97,0.00,-DZ,,0.14,WeatherDisplay:10.37,2013-10-08 22:30:00,
2013-10-08 23:45:00,58.8,58.0,30.22,NNW,327,1.0,4.0,97,0.00,-DZ,,0.14,WeatherDisplay:10.37,2013-10-08 22:45:00,